Time;durP1;ratioP1;P1;durP2;ratioP2;P2;SDS_P1;SDS_P2;PMS_P1;PMS_P2;Temp;Humidity;BMP_temperature;BMP_pressure;BME280_temperature;BME280_humidity;BME280_pressure;Samples;Min_cycle;Max_cycle;Signal;HPM_P1;HPM_P2
2021/05/01 00:02:06;;;;;;;;;;;;;;;3.31;100.00;100760.28;5091452;28;20421;-70
2021/05/01 00:04:32;;;;;;;;;;;;;;;3.28;100.00;100769.34;5091519;28;19928;-70
2021/05/01 00:06:59;;;;;;;;;;;;;;;3.29;100.00;100764.88;5090352;28;19992;-71
2021/05/01 00:09:24;;;;;;;;;;;;;;;3.30;100.00;100774.63;5091302;28;19967;-71
2021/05/01 00:11:50;;;;;;;;;;;;;;;3.33;100.00;100778.06;5091518;28;19924;-70
2021/05/01 00:14:16;;;;;;;;;;;;;;;3.40;100.00;100773.25;5091071;28;20394;-70
2021/05/01 00:16:42;;;;;;;;;;;;;;;3.52;100.00;100769.94;5091029;28;19956;-70
2021/05/01 00:19:08;;;;;;;;;;;;;;;3.57;100.00;100777.75;5091004;28;19924;-70
2021/05/01 00:21:34;;;;;;;;;;;;;;;3.66;100.00;100771.03;5091318;28;19955;-71
2021/05/01 00:24:02;;;;;;;;;;;;;;;3.76;100.00;100772.31;5091249;28;19936;-71
2021/05/01 00:26:27;;;;;;;;;;;;;;;3.82;100.00;100774.69;5090839;28;19928;-70
2021/05/01 00:28:53;;;;;;;;;;;;;;;3.88;100.00;100770.78;5091342;28;19924;-70
2021/05/01 00:31:20;;;;;;;;;;;;;;;3.93;100.00;100762.47;5091147;28;19924;-71
2021/05/01 00:33:46;;;;;;;;;;;;;;;3.95;100.00;100753.41;5073009;28;20474;-70
2021/05/01 00:36:12;;;;;;;;;;;;;;;3.96;100.00;100754.28;5090855;28;20125;-70
2021/05/01 00:38:38;;;;;;;;;;;;;;;3.95;100.00;100745.34;5091001;28;20028;-71
2021/05/01 00:41:05;;;;;;;;;;;;;;;3.93;100.00;100749.94;5091164;28;20061;-70
2021/05/01 00:43:30;;;;;;;;;;;;;;;3.93;100.00;100747.25;5090834;28;19928;-70
2021/05/01 00:46:03;;;;;;;;;;;;;;;3.93;100.00;100749.06;5090839;28;19924;-70
2021/05/01 00:48:29;;;;;;;;;;;;;;;3.94;100.00;100748.09;5091097;28;19931;-71
2021/05/01 00:50:55;;;;;;;;;;;;;;;3.92;100.00;100744.66;5091204;28;20205;-70
2021/05/01 00:53:21;;;;;;;;;;;;;;;3.90;100.00;100743.84;5072883;28;19935;-70
2021/05/01 00:55:47;;;;;;;;;;;;;;;3.90;100.00;100735.78;5090641;28;19924;-70
2021/05/01 00:58:14;;;;;;;;;;;;;;;3.93;100.00;100743.69;5090441;28;19928;-70
2021/05/01 01:00:59;;;;;;;;;;;;;;;3.91;100.00;100749.13;5091021;28;20422;-70
2021/05/01 01:03:25;;;;;;;;;;;;;;;3.91;100.00;100750.97;5090783;28;20489;-71
2021/05/01 01:05:51;;;;;;;;;;;;;;;3.95;100.00;100760.59;5090534;28;19928;-70
2021/05/01 01:08:17;;;;;;;;;;;;;;;3.96;100.00;100756.97;5090775;28;20345;-70
2021/05/01 01:10:43;;;;;;;;;;;;;;;4.02;100.00;100762.00;5090908;28;19928;-70
2021/05/01 01:13:08;;;;;;;;;;;;;;;4.09;100.00;100762.53;5072376;28;19979;-71
2021/05/01 01:15:35;;;;;;;;;;;;;;;4.17;100.00;100765.72;5090562;28;19928;-70
2021/05/01 01:18:01;;;;;;;;;;;;;;;4.24;100.00;100760.88;5090909;28;20020;-70
2021/05/01 01:20:27;;;;;;;;;;;;;;;4.28;100.00;100757.06;5094555;28;20345;-71
2021/05/01 01:22:54;;;;;;;;;;;;;;;4.29;100.00;100751.59;5094388;28;19928;-70
2021/05/01 01:25:19;;;;;;;;;;;;;;;4.30;100.00;100747.97;5094109;28;19960;-70
2021/05/01 01:27:46;;;;;;;;;;;;;;;4.30;100.00;100750.66;5094513;28;19931;-71
2021/05/01 01:30:12;;;;;;;;;;;;;;;4.30;100.00;100744.38;5094038;28;19924;-71
2021/05/01 01:32:38;;;;;;;;;;;;;;;4.31;100.00;100747.00;5094169;28;19931;-70
2021/05/01 01:35:05;;;;;;;;;;;;;;;4.34;100.00;100745.94;5093960;28;19924;-71
2021/05/01 01:37:31;;;;;;;;;;;;;;;4.31;100.00;100743.44;5075964;28;20391;-71
2021/05/01 01:39:57;;;;;;;;;;;;;;;4.29;100.00;100740.84;5094281;28;19978;-70
2021/05/01 01:42:23;;;;;;;;;;;;;;;4.32;100.00;100742.50;5093918;28;19936;-71
2021/05/01 01:44:49;;;;;;;;;;;;;;;4.33;100.00;100745.09;5076063;28;19970;-70
2021/05/01 01:47:15;;;;;;;;;;;;;;;4.38;100.00;100750.19;5093932;28;20394;-71
2021/05/01 01:49:41;;;;;;;;;;;;;;;4.39;100.00;100751.94;5093699;28;19924;-70
2021/05/01 01:52:07;;;;;;;;;;;;;;;4.39;100.00;100754.63;5093841;28;19945;-71
2021/05/01 01:54:33;;;;;;;;;;;;;;;4.42;100.00;100754.47;5075661;28;20337;-70
2021/05/01 01:57:00;;;;;;;;;;;;;;;4.45;100.00;100758.81;5093710;28;19928;-71
2021/05/01 01:59:26;;;;;;;;;;;;;;;4.50;100.00;100757.63;5075478;28;19976;-70
2021/05/01 02:01:52;;;;;;;;;;;;;;;4.53;100.00;100760.13;5093756;28;19967;-70
2021/05/01 02:04:18;;;;;;;;;;;;;;;4.52;100.00;100758.38;5092758;28;19928;-70
2021/05/01 02:06:44;;;;;;;;;;;;;;;4.57;100.00;100763.53;5075379;28;19928;-70
2021/05/01 02:09:10;;;;;;;;;;;;;;;4.58;100.00;100769.75;5093922;28;20018;-70
2021/05/01 02:11:36;;;;;;;;;;;;;;;4.59;100.00;100758.06;5093108;28;19932;-70
2021/05/01 02:14:03;;;;;;;;;;;;;;;4.64;100.00;100764.03;5093719;28;19924;-70
2021/05/01 02:16:29;;;;;;;;;;;;;;;4.65;100.00;100763.06;5093170;28;19998;-70
2021/05/01 02:18:55;;;;;;;;;;;;;;;4.70;100.00;100763.69;5093536;28;19934;-71
2021/05/01 02:21:20;;;;;;;;;;;;;;;4.77;100.00;100756.13;5093584;28;19924;-70
2021/05/01 02:23:46;;;;;;;;;;;;;;;4.80;100.00;100762.22;5093230;28;20434;-71
2021/05/01 02:26:12;;;;;;;;;;;;;;;4.83;100.00;100753.13;5092820;28;19928;-70
2021/05/01 02:28:38;;;;;;;;;;;;;;;4.90;100.00;100754.47;5075176;28;20300;-70
2021/05/01 02:31:04;;;;;;;;;;;;;;;4.93;100.00;100761.50;5092564;28;19924;-70
2021/05/01 02:33:30;;;;;;;;;;;;;;;4.93;100.00;100753.44;5092633;28;19928;-70
2021/05/01 02:35:56;;;;;;;;;;;;;;;4.97;100.00;100750.50;5092726;28;19931;-70
2021/05/01 02:38:22;;;;;;;;;;;;;;;4.98;100.00;100760.31;5092974;28;19928;-70
2021/05/01 02:40:48;;;;;;;;;;;;;;;4.97;100.00;100752.31;5074975;28;19986;-72
2021/05/01 02:43:14;;;;;;;;;;;;;;;5.01;100.00;100745.78;5093256;28;19932;-70
2021/05/01 02:45:39;;;;;;;;;;;;;;;5.04;100.00;100753.72;5074654;28;19928;-70
2021/05/01 02:48:07;;;;;;;;;;;;;;;5.05;100.00;100749.19;5094474;28;19924;-71
2021/05/01 02:50:33;;;;;;;;;;;;;;;5.09;100.00;100748.06;5100305;28;19932;-71
2021/05/01 02:52:58;;;;;;;;;;;;;;;5.11;100.00;100740.78;5097362;28;19960;-71
2021/05/01 02:55:25;;;;;;;;;;;;;;;5.09;100.00;100732.78;5092662;28;19928;-70
2021/05/01 02:57:51;;;;;;;;;;;;;;;5.09;100.00;100722.03;5074841;28;19977;-70
2021/05/01 03:00:18;;;;;;;;;;;;;;;5.11;100.00;100721.94;5092647;28;20311;-70
2021/05/01 03:02:45;;;;;;;;;;;;;;;5.08;100.00;100717.59;5074248;28;19974;-71
2021/05/01 03:05:13;;;;;;;;;;;;;;;5.07;100.00;100723.94;5092192;28;19924;-70
2021/05/01 03:07:39;;;;;;;;;;;;;;;5.12;100.00;100716.47;5092654;28;20028;-71
2021/05/01 03:10:05;;;;;;;;;;;;;;;5.10;100.00;100720.19;5092365;28;19924;-71
2021/05/01 03:12:31;;;;;;;;;;;;;;;5.07;100.00;100718.53;5092445;28;19997;-71
2021/05/01 03:14:57;;;;;;;;;;;;;;;5.06;100.00;100721.34;5092261;28;20319;-71
2021/05/01 03:17:23;;;;;;;;;;;;;;;5.05;100.00;100715.09;5092117;28;19928;-70
2021/05/01 03:19:48;;;;;;;;;;;;;;;5.07;100.00;100710.47;5092119;28;19932;-71
2021/05/01 03:22:15;;;;;;;;;;;;;;;5.07;100.00;100710.47;5091901;28;20388;-71
2021/05/01 03:24:41;;;;;;;;;;;;;;;5.11;100.00;100717.41;5074046;28;20021;-71
2021/05/01 03:27:07;;;;;;;;;;;;;;;5.14;100.00;100709.16;5073634;28;19924;-71
2021/05/01 03:29:33;;;;;;;;;;;;;;;5.19;100.00;100708.88;5092187;28;20371;-71
2021/05/01 03:31:59;;;;;;;;;;;;;;;5.22;100.00;100708.69;5073929;28;19924;-71
2021/05/01 03:34:25;;;;;;;;;;;;;;;5.24;100.00;100711.28;5091904;28;19924;-71
2021/05/01 03:36:50;;;;;;;;;;;;;;;5.26;100.00;100718.31;5091718;28;20015;-71
2021/05/01 03:39:17;;;;;;;;;;;;;;;5.27;100.00;100706.59;5091633;28;19928;-71
2021/05/01 03:41:43;;;;;;;;;;;;;;;5.26;100.00;100704.00;5073287;28;19932;-71
2021/05/01 03:44:09;;;;;;;;;;;;;;;5.28;100.00;100699.41;5091667;28;19946;-71
2021/05/01 03:46:35;;;;;;;;;;;;;;;5.30;100.00;100698.34;5073704;28;19927;-71
2021/05/01 03:49:01;;;;;;;;;;;;;;;5.34;100.00;100701.72;5091914;28;19928;-71
2021/05/01 03:51:26;;;;;;;;;;;;;;;5.35;100.00;100700.78;5091522;28;19928;-70
2021/05/01 03:53:52;;;;;;;;;;;;;;;5.33;100.00;100697.28;5073943;28;19994;-71
2021/05/01 03:56:19;;;;;;;;;;;;;;;5.33;100.00;100691.91;5091045;28;19924;-71
2021/05/01 03:58:45;;;;;;;;;;;;;;;5.36;100.00;100691.75;5091765;28;19959;-71
2021/05/01 04:01:10;;;;;;;;;;;;;;;5.40;100.00;100697.78;5073489;28;19924;-71
2021/05/01 04:03:36;;;;;;;;;;;;;;;5.39;100.00;100696.09;5091571;28;20104;-70
2021/05/01 04:06:04;;;;;;;;;;;;;;;5.42;100.00;100685.97;5091404;28;19928;-71
2021/05/01 04:08:30;;;;;;;;;;;;;;;5.43;100.00;100698.47;5073389;28;19981;-71
2021/05/01 04:10:55;;;;;;;;;;;;;;;5.45;100.00;100693.88;5091281;28;19928;-71
2021/05/01 04:13:22;;;;;;;;;;;;;;;5.47;100.00;100705.41;5090815;28;19924;-70
2021/05/01 04:15:48;;;;;;;;;;;;;;;5.45;100.00;100712.72;5090356;28;19956;-70
2021/05/01 04:18:14;;;;;;;;;;;;;;;5.42;100.00;100712.91;5090760;28;19927;-70
2021/05/01 04:20:40;;;;;;;;;;;;;;;5.41;100.00;100713.00;5073325;28;19973;-70
2021/05/01 04:23:06;;;;;;;;;;;;;;;5.40;100.00;100713.94;5091282;28;19928;-69
2021/05/01 04:25:31;;;;;;;;;;;;;;;5.43;100.00;100720.03;5091012;28;20324;-69
2021/05/01 04:27:57;;;;;;;;;;;;;;;5.44;100.00;100720.88;5091414;28;19992;-69
2021/05/01 04:30:24;;;;;;;;;;;;;;;5.48;100.00;100717.94;5072961;28;20003;-69
2021/05/01 04:32:50;;;;;;;;;;;;;;;5.50;100.00;100721.38;5090986;28;19924;-69
2021/05/01 04:35:16;;;;;;;;;;;;;;;5.56;100.00;100703.13;5090893;28;20026;-69
2021/05/01 04:37:42;;;;;;;;;;;;;;;5.58;100.00;100710.16;5091225;28;19939;-69
2021/05/01 04:40:08;;;;;;;;;;;;;;;5.61;100.00;100704.59;5073253;28;19990;-70
2021/05/01 04:42:37;;;;;;;;;;;;;;;5.65;100.00;100702.56;5073087;28;19950;-70
2021/05/01 04:45:03;;;;;;;;;;;;;;;5.68;100.00;100707.78;5091032;28;19928;-69
2021/05/01 04:47:30;;;;;;;;;;;;;;;5.74;100.00;100707.38;5090684;28;19924;-69
2021/05/01 04:49:56;;;;;;;;;;;;;;;5.78;100.00;100708.94;5091134;28;19925;-70
2021/05/01 04:52:21;;;;;;;;;;;;;;;5.82;100.00;100712.31;5090979;28;20292;-70
2021/05/01 04:54:47;;;;;;;;;;;;;;;5.85;100.00;100720.19;5094080;28;19924;-70
2021/05/01 04:57:13;;;;;;;;;;;;;;;5.85;100.00;100715.69;5094616;28;19928;-70
2021/05/01 04:59:39;;;;;;;;;;;;;;;5.85;100.00;100718.38;5095063;28;20015;-70
2021/05/01 05:02:04;;;;;;;;;;;;;;;5.89;100.00;100718.19;5094821;28;20461;-69
2021/05/01 05:04:31;;;;;;;;;;;;;;;5.87;100.00;100716.44;5076676;28;19939;-69
2021/05/01 05:06:57;;;;;;;;;;;;;;;5.84;100.00;100715.78;5094445;28;20350;-69
2021/05/01 05:09:23;;;;;;;;;;;;;;;5.84;100.00;100718.47;5094784;28;19928;-70
2021/05/01 05:11:48;;;;;;;;;;;;;;;5.85;100.00;100725.59;5094246;28;19925;-70
2021/05/01 05:14:14;;;;;;;;;;;;;;;5.87;100.00;100727.22;5094108;28;19924;-69
2021/05/01 05:16:40;;;;;;;;;;;;;;;5.93;100.00;100730.50;5094467;28;19976;-70
2021/05/01 05:19:06;;;;;;;;;;;;;;;5.93;100.00;100728.66;5094727;28;19924;-69
2021/05/01 05:21:34;;;;;;;;;;;;;;;5.91;100.00;100732.44;5093969;28;20488;-69
2021/05/01 05:24:00;;;;;;;;;;;;;;;5.94;100.00;100734.94;5094201;28;20018;-69
2021/05/01 05:26:26;;;;;;;;;;;;;;;5.98;100.00;100731.13;5075208;28;19928;-70
2021/05/01 05:28:52;;;;;;;;;;;;;;;6.04;100.00;100738.84;5093810;28;19952;-71
2021/05/01 05:31:18;;;;;;;;;;;;;;;6.06;100.00;100742.28;5094011;28;19977;-72
2021/05/01 05:33:43;;;;;;;;;;;;;;;6.05;100.00;100729.78;5094278;28;19924;-69
2021/05/01 05:36:09;;;;;;;;;;;;;;;6.07;100.00;100733.25;5093259;28;19928;-71
2021/05/01 05:38:36;;;;;;;;;;;;;;;6.11;100.00;100732.09;5094208;28;19924;-69
2021/05/01 05:41:02;;;;;;;;;;;;;;;6.16;100.00;100729.09;5093921;28;19932;-70
2021/05/01 05:43:30;;;;;;;;;;;;;;;6.20;100.00;100726.13;5093670;28;20315;-69
2021/05/01 05:45:56;;;;;;;;;;;;;;;6.25;100.00;100730.38;5086679;28;19969;-69
2021/05/01 05:48:22;;;;;;;;;;;;;;;6.18;100.00;100730.72;5093775;28;19924;-70
2021/05/01 05:50:48;;;;;;;;;;;;;;;6.20;100.00;100742.31;5094127;28;20299;-70
2021/05/01 05:53:14;;;;;;;;;;;;;;;6.23;100.00;100735.84;5093106;28;19924;-70
2021/05/01 05:55:40;;;;;;;;;;;;;;;6.27;100.00;100742.78;5093947;28;19931;-70
2021/05/01 05:58:06;;;;;;;;;;;;;;;6.33;100.00;100746.91;5075061;28;19924;-70
2021/05/01 06:00:32;;;;;;;;;;;;;;;6.30;100.00;100747.97;5092794;28;20402;-70
2021/05/01 06:02:59;;;;;;;;;;;;;;;6.26;100.00;100748.28;5074993;28;19967;-70
2021/05/01 06:05:27;;;;;;;;;;;;;;;6.17;100.00;100744.31;5091490;28;19928;-70
2021/05/01 06:07:55;;;;;;;;;;;;;;;6.07;100.00;100740.47;5093593;28;19946;-70
2021/05/01 06:10:21;;;;;;;;;;;;;;;6.05;100.00;100743.25;5093211;28;20354;-70
2021/05/01 06:12:48;;;;;;;;;;;;;;;6.12;100.00;100741.91;5093495;28;19924;-69
2021/05/01 06:15:15;;;;;;;;;;;;;;;6.19;100.00;100734.31;5092869;28;20374;-70
2021/05/01 06:17:42;;;;;;;;;;;;;;;6.25;100.00;100733.06;5092692;28;19959;-69
2021/05/01 06:20:08;;;;;;;;;;;;;;;6.34;100.00;100736.03;5092887;28;20311;-71
2021/05/01 06:22:34;;;;;;;;;;;;;;;6.41;100.00;100732.94;5074546;28;19924;-69
2021/05/01 06:25:00;;;;;;;;;;;;;;;6.34;100.00;100738.72;5074802;28;20391;-71
2021/05/01 06:27:26;;;;;;;;;;;;;;;6.38;100.00;100734.00;5092576;28;19924;-72
2021/05/01 06:29:53;;;;;;;;;;;;;;;6.46;100.00;100739.78;5092780;28;19950;-71
2021/05/01 06:32:19;;;;;;;;;;;;;;;6.47;100.00;100741.50;5074446;28;19924;-71
2021/05/01 06:34:46;;;;;;;;;;;;;;;6.49;100.00;100742.31;5092784;28;19924;-71
2021/05/01 06:37:15;;;;;;;;;;;;;;;6.58;100.00;100743.53;5091856;28;20297;-71
2021/05/01 06:39:41;;;;;;;;;;;;;;;6.59;100.00;100741.69;5092234;28;19924;-71
2021/05/01 06:42:11;;;;;;;;;;;;;;;6.62;100.00;100741.50;5092585;28;19977;-71
2021/05/01 06:44:39;;;;;;;;;;;;;;;6.72;100.00;100742.66;5092838;28;19924;-72
2021/05/01 06:47:07;;;;;;;;;;;;;;;6.84;100.00;100736.44;5091618;28;19928;-71
2021/05/01 06:49:37;;;;;;;;;;;;;;;6.90;100.00;100742.41;5074048;28;19935;-70
2021/05/01 06:52:03;;;;;;;;;;;;;;;7.03;100.00;100736.09;5092309;28;19970;-71
2021/05/01 06:54:30;;;;;;;;;;;;;;;7.09;100.00;100733.97;5072423;28;20276;-71
2021/05/01 06:56:56;;;;;;;;;;;;;;;7.18;100.00;100728.81;5078593;28;20276;-71
2021/05/01 06:59:22;;;;;;;;;;;;;;;7.23;100.00;100731.22;5091796;28;19935;-71
2021/05/01 07:01:48;;;;;;;;;;;;;;;7.27;100.00;100738.13;5092269;28;19924;-71
2021/05/01 07:04:16;;;;;;;;;;;;;;;7.43;100.00;100732.56;5090459;28;19993;-71
2021/05/01 07:06:42;;;;;;;;;;;;;;;7.38;100.00;100723.91;5091561;28;19924;-71
2021/05/01 07:09:08;;;;;;;;;;;;;;;7.45;100.00;100727.91;5092274;28;19930;-71
2021/05/01 07:11:34;;;;;;;;;;;;;;;7.49;100.00;100726.72;5091471;28;20156;-71
2021/05/01 07:14:01;;;;;;;;;;;;;;;7.45;100.00;100732.44;5091567;28;19931;-71
2021/05/01 07:16:28;;;;;;;;;;;;;;;7.58;100.00;100730.66;5072186;28;19927;-71
2021/05/01 07:18:55;;;;;;;;;;;;;;;7.54;100.00;100727.28;5091680;28;19928;-70
2021/05/01 07:21:21;;;;;;;;;;;;;;;7.45;100.00;100729.75;5079369;28;19924;-70
2021/05/01 07:23:47;;;;;;;;;;;;;;;7.52;100.00;100742.75;5089222;28;19925;-70
2021/05/01 07:26:16;;;;;;;;;;;;;;;7.53;100.00;100732.78;5091716;28;20457;-69
2021/05/01 07:28:45;;;;;;;;;;;;;;;7.65;100.00;100737.34;5091844;28;20299;-70
2021/05/01 07:31:13;;;;;;;;;;;;;;;7.58;100.00;100735.19;5091812;28;19975;-69
2021/05/01 07:33:42;;;;;;;;;;;;;;;7.72;100.00;100726.97;5091526;28;19924;-69
2021/05/01 07:36:10;;;;;;;;;;;;;;;7.62;100.00;100728.59;5091409;28;19954;-69
2021/05/01 07:38:36;;;;;;;;;;;;;;;7.72;100.00;100726.97;5090991;28;20574;-69
2021/05/01 07:41:03;;;;;;;;;;;;;;;7.72;100.00;100732.38;5090278;28;19928;-69
2021/05/01 07:43:29;;;;;;;;;;;;;;;7.63;100.00;100723.09;5090811;28;19967;-69
2021/05/01 07:45:56;;;;;;;;;;;;;;;7.53;100.00;100728.25;5085473;28;20023;-70
2021/05/01 07:48:22;;;;;;;;;;;;;;;7.73;100.00;100736.81;5084877;28;20371;-69
2021/05/01 07:50:48;;;;;;;;;;;;;;;7.83;100.00;100728.94;5092117;28;19924;-69
2021/05/01 07:53:14;;;;;;;;;;;;;;;7.98;100.00;100735.97;5092100;28;19924;-70
2021/05/01 07:55:41;;;;;;;;;;;;;;;8.24;100.00;100741.38;5091901;28;19946;-69
2021/05/01 07:58:07;;;;;;;;;;;;;;;8.19;100.00;100738.13;5091697;28;19990;-69
2021/05/01 08:00:34;;;;;;;;;;;;;;;8.35;100.00;100732.47;5091555;28;20579;-69
2021/05/01 08:03:00;;;;;;;;;;;;;;;8.07;100.00;100726.38;5092044;28;19932;-69
2021/05/01 08:05:26;;;;;;;;;;;;;;;8.19;100.00;100728.19;5091481;28;20349;-70
2021/05/01 08:07:52;;;;;;;;;;;;;;;8.48;100.00;100733.38;5073592;28;19954;-70
2021/05/01 08:10:18;;;;;;;;;;;;;;;8.64;100.00;100727.69;5091628;28;19924;-70
2021/05/01 08:12:45;;;;;;;;;;;;;;;8.87;100.00;100730.56;5091734;28;20031;-69
2021/05/01 08:15:11;;;;;;;;;;;;;;;8.78;100.00;100734.81;5091337;28;19932;-70
2021/05/01 08:17:39;;;;;;;;;;;;;;;8.91;100.00;100732.06;5073469;28;20013;-70
2021/05/01 08:20:05;;;;;;;;;;;;;;;9.26;100.00;100724.97;5091605;28;20365;-69
2021/05/01 08:22:31;;;;;;;;;;;;;;;9.40;100.00;100723.94;5091407;28;19924;-70
2021/05/01 08:24:57;;;;;;;;;;;;;;;9.55;100.00;100717.34;5091656;28;19925;-69
2021/05/01 08:27:23;;;;;;;;;;;;;;;9.61;100.00;100718.72;5091478;28;19924;-70
2021/05/01 08:29:49;;;;;;;;;;;;;;;9.36;100.00;100720.59;5094915;28;19931;-69
2021/05/01 08:32:17;;;;;;;;;;;;;;;9.26;100.00;100706.03;5094991;28;19936;-70
2021/05/01 08:34:43;;;;;;;;;;;;;;;9.28;100.00;100713.06;5086865;28;19924;-69
2021/05/01 08:37:08;;;;;;;;;;;;;;;9.60;100.00;100712.44;5080269;28;19971;-69
2021/05/01 08:39:34;;;;;;;;;;;;;;;9.68;100.00;100703.72;5085629;28;19924;-70
2021/05/01 08:42:00;;;;;;;;;;;;;;;9.67;100.00;100702.84;5078485;28;19932;-69
2021/05/01 08:44:26;;;;;;;;;;;;;;;9.89;100.00;100706.59;5097119;28;19967;-70
2021/05/01 08:46:53;;;;;;;;;;;;;;;9.81;100.00;100709.91;5094831;28;19970;-69
2021/05/01 08:49:19;;;;;;;;;;;;;;;9.68;100.00;100703.72;5097804;28;19958;-69
2021/05/01 08:51:44;;;;;;;;;;;;;;;9.83;100.00;100697.06;5097873;28;19924;-69
2021/05/01 08:54:11;;;;;;;;;;;;;;;9.86;100.00;100706.81;5097893;28;19924;-70
2021/05/01 08:56:37;;;;;;;;;;;;;;;10.01;100.00;100704.75;5097592;28;19924;-69
2021/05/01 08:59:03;;;;;;;;;;;;;;;10.12;100.00;100696.63;5097716;28;20561;-70
2021/05/01 09:01:29;;;;;;;;;;;;;;;9.92;100.00;100706.34;5097731;28;19924;-69
2021/05/01 09:03:56;;;;;;;;;;;;;;;10.08;100.00;100691.59;5098151;28;20379;-70
2021/05/01 09:06:23;;;;;;;;;;;;;;;10.12;100.00;100688.47;5097657;28;19931;-70
2021/05/01 09:08:54;;;;;;;;;;;;;;;9.96;100.00;100683.41;5097832;28;19970;-70
2021/05/01 09:11:31;;;;;;;;;;;;;;;10.17;100.00;100677.28;5097823;28;20312;-70
2021/05/01 09:13:57;;;;;;;;;;;;;;;10.46;100.00;100676.78;5097930;28;19935;-70
2021/05/01 09:16:23;;;;;;;;;;;;;;;10.47;100.00;100684.81;5097417;28;20376;-69
2021/05/01 09:18:51;;;;;;;;;;;;;;;10.49;100.00;100677.41;5097829;28;19924;-70
2021/05/01 09:21:18;;;;;;;;;;;;;;;10.65;100.00;100676.13;5097655;28;19937;-69
2021/05/01 09:23:44;;;;;;;;;;;;;;;10.58;100.00;100677.63;5098112;28;20018;-69
2021/05/01 09:26:10;;;;;;;;;;;;;;;10.33;100.00;100682.34;5097418;28;19950;-69
2021/05/01 09:28:40;;;;;;;;;;;;;;;10.31;100.00;100681.59;5079743;28;19924;-69
2021/05/01 09:31:06;;;;;;;;;;;;;;;10.33;100.00;100687.75;5097667;28;19924;-70
2021/05/01 09:33:33;;;;;;;;;;;;;;;10.38;100.00;100688.25;5097491;28;20421;-69
2021/05/01 09:36:00;;;;;;;;;;;;;;;10.34;100.00;100681.31;5097355;28;19931;-69
2021/05/01 09:38:29;;;;;;;;;;;;;;;10.26;100.00;100684.69;5097400;28;19971;-69
2021/05/01 09:40:55;;;;;;;;;;;;;;;10.40;100.00;100683.59;5094880;28;19928;-69
2021/05/01 09:43:21;;;;;;;;;;;;;;;10.25;100.00;100685.66;5093914;28;20373;-69
2021/05/01 09:45:47;;;;;;;;;;;;;;;10.58;100.00;100675.78;5075750;28;19924;-69
2021/05/01 09:48:14;;;;;;;;;;;;;;;10.69;100.00;100678.47;5094161;28;20018;-69
2021/05/01 09:50:40;;;;;;;;;;;;;;;10.78;100.00;100679.56;5094351;28;19967;-69
2021/05/01 09:53:08;;;;;;;;;;;;;;;11.26;100.00;100675.56;5094418;28;19950;-69
2021/05/01 09:55:48;;;;;;;;;;;;;;;11.75;100.00;100673.22;5094133;28;19928;-69
2021/05/01 09:58:14;;;;;;;;;;;;;;;11.98;100.00;100668.50;5091991;28;19981;-69
2021/05/01 10:00:40;;;;;;;;;;;;;;;11.71;100.00;100677.19;5092172;28;19967;-69
2021/05/01 10:03:18;;;;;;;;;;;;;;;11.78;100.00;100675.66;5092393;28;19959;-70
2021/05/01 10:05:44;;;;;;;;;;;;;;;12.02;100.00;100666.38;5093684;28;19928;-69
2021/05/01 10:08:10;;;;;;;;;;;;;;;12.13;100.00;100651.81;5093262;28;19924;-69
2021/05/01 10:10:39;;;;;;;;;;;;;;;13.07;100.00;100657.78;5093646;28;20432;-69
2021/05/01 10:13:06;;;;;;;;;;;;;;;13.02;100.00;100665.50;5093241;28;20013;-68
2021/05/01 10:15:32;;;;;;;;;;;;;;;13.28;100.00;100658.63;5088088;28;19963;-69
2021/05/01 10:18:08;;;;;;;;;;;;;;;13.11;100.00;100665.66;5093076;28;19924;-70
2021/05/01 10:20:38;;;;;;;;;;;;;;;13.55;100.00;100666.13;5093110;28;19982;-70
2021/05/01 10:23:04;;;;;;;;;;;;;;;13.67;100.00;100658.63;5079747;28;19962;-70
2021/05/01 10:25:32;;;;;;;;;;;;;;;15.01;100.00;100663.81;5092443;28;19928;-70
2021/05/01 10:28:00;;;;;;;;;;;;;;;16.39;92.21;100655.94;5093363;28;19970;-70
2021/05/01 10:30:29;;;;;;;;;;;;;;;16.20;83.82;100654.31;5093129;28;20387;-69
2021/05/01 10:32:57;;;;;;;;;;;;;;;15.14;89.21;100655.19;5075217;28;19931;-70
2021/05/01 10:35:23;;;;;;;;;;;;;;;14.67;93.14;100658.97;5092871;28;19928;-69
2021/05/01 10:37:55;;;;;;;;;;;;;;;14.23;94.79;100655.00;5093242;28;20304;-70
2021/05/01 10:40:21;;;;;;;;;;;;;;;13.87;98.51;100657.59;5093014;28;20020;-69
2021/05/01 10:43:05;;;;;;;;;;;;;;;13.17;100.00;100660.50;5093204;28;19924;-69
2021/05/01 10:45:32;;;;;;;;;;;;;;;13.10;100.00;100675.72;5092797;28;19928;-69
2021/05/01 10:48:05;;;;;;;;;;;;;;;12.75;100.00;100674.38;5074667;28;19974;-69
2021/05/01 10:50:31;;;;;;;;;;;;;;;12.14;100.00;100656.28;5092889;28;19993;-69
2021/05/01 10:52:58;;;;;;;;;;;;;;;12.01;100.00;100651.94;5092874;28;20375;-68
2021/05/01 10:55:25;;;;;;;;;;;;;;;11.94;100.00;100647.97;5092205;28;19932;-69
2021/05/01 10:57:57;;;;;;;;;;;;;;;12.02;100.00;100658.22;5092846;28;19963;-66
2021/05/01 11:00:23;;;;;;;;;;;;;;;12.32;100.00;100656.47;5092543;28;19931;-66
2021/05/01 11:02:58;;;;;;;;;;;;;;;12.71;100.00;100657.44;5074797;28;19924;-66
2021/05/01 11:05:24;;;;;;;;;;;;;;;13.07;100.00;100652.31;5091922;28;19928;-66
2021/05/01 11:07:51;;;;;;;;;;;;;;;13.17;100.00;100657.78;5092692;28;20436;-68
2021/05/01 11:10:19;;;;;;;;;;;;;;;12.89;100.00;100656.75;5092355;28;19935;-70
2021/05/01 11:12:49;;;;;;;;;;;;;;;13.10;100.00;100653.91;5092725;28;19931;-69
2021/05/01 11:15:15;;;;;;;;;;;;;;;12.95;100.00;100656.19;5092110;28;19924;-69
2021/05/01 11:17:46;;;;;;;;;;;;;;;13.20;100.00;100651.19;5092618;28;19927;-68
2021/05/01 11:20:15;;;;;;;;;;;;;;;12.97;100.00;100662.34;5073401;28;19924;-68
2021/05/01 11:22:43;;;;;;;;;;;;;;;12.93;100.00;100665.50;5091899;28;19930;-69
2021/05/01 11:25:09;;;;;;;;;;;;;;;12.64;100.00;100671.75;5090812;28;19931;-68
2021/05/01 11:27:35;;;;;;;;;;;;;;;12.22;100.00;100670.06;5091735;28;19924;-69
2021/05/01 11:30:01;;;;;;;;;;;;;;;12.19;100.00;100664.88;5092435;28;19925;-69
2021/05/01 11:32:27;;;;;;;;;;;;;;;11.93;100.00;100665.28;5092081;28;19928;-69
2021/05/01 11:34:59;;;;;;;;;;;;;;;11.87;100.00;100663.13;5092052;28;19968;-69
2021/05/01 11:37:26;;;;;;;;;;;;;;;11.78;100.00;100663.94;5073834;28;19963;-69
2021/05/01 11:39:53;;;;;;;;;;;;;;;11.54;100.00;100671.38;5074108;28;20019;-69
2021/05/01 11:42:22;;;;;;;;;;;;;;;11.51;100.00;100677.06;5091868;28;19924;-69
2021/05/01 11:44:48;;;;;;;;;;;;;;;11.68;100.00;100672.03;5107931;28;19974;-69
2021/05/01 11:47:14;;;;;;;;;;;;;;;11.90;100.00;100676.44;5091663;28;20384;-70
2021/05/01 11:49:40;;;;;;;;;;;;;;;12.05;100.00;100676.97;5092023;28;19925;-69
2021/05/01 11:52:25;;;;;;;;;;;;;;;11.87;100.00;100691.16;5073726;28;19950;-69
2021/05/01 11:55:05;;;;;;;;;;;;;;;11.95;100.00;100682.38;5071769;28;19924;-70
2021/05/01 11:57:36;;;;;;;;;;;;;;;12.16;100.00;100681.47;5077654;28;19935;-70
2021/05/01 12:00:03;;;;;;;;;;;;;;;12.02;100.00;100671.81;5092013;28;19930;-69
2021/05/01 12:02:38;;;;;;;;;;;;;;;12.20;100.00;100674.78;5091430;28;19977;-68
2021/05/01 12:05:06;;;;;;;;;;;;;;;11.87;100.00;100677.56;5090462;28;19932;-69
2021/05/01 12:07:33;;;;;;;;;;;;;;;11.91;100.00;100667.28;5091257;28;19928;-70
2021/05/01 12:10:02;;;;;;;;;;;;;;;12.00;100.00;100669.25;5084796;28;20426;-69
2021/05/01 12:12:29;;;;;;;;;;;;;;;12.21;100.00;100661.03;5091124;28;19931;-69
2021/05/01 12:15:01;;;;;;;;;;;;;;;12.60;100.00;100659.41;5069419;28;19925;-68
2021/05/01 12:17:29;;;;;;;;;;;;;;;13.00;100.00;100666.66;5087022;28;19975;-69
2021/05/01 12:20:03;;;;;;;;;;;;;;;13.40;100.00;100657.50;5071398;28;19964;-69
2021/05/01 12:22:30;;;;;;;;;;;;;;;14.41;99.48;100656.94;5085956;28;19932;-69
2021/05/01 12:24:56;;;;;;;;;;;;;;;14.77;95.95;100650.75;5087050;28;19959;-69
2021/05/01 12:27:37;;;;;;;;;;;;;;;15.89;86.56;100643.88;5083609;28;19932;-70
2021/05/01 12:30:04;;;;;;;;;;;;;;;16.03;76.49;100647.88;5090948;28;19928;-70
2021/05/01 12:32:30;;;;;;;;;;;;;;;16.94;75.21;100656.50;5091140;28;19978;-70